Airfield :
LOGIN :

Register | Disclaimer

   EN    FR    IT 

 










Legend :    VFR   Marginal VFR   IFR   Intensive IFR   Very Intensive IFR
Visi :
Ceiling :
>= 8 km
>= 3000ft
5 to 8 km
1000 to 3000 ft
1500m to 5 km
500 to 1000 ft
800 to 1500m
200 to 500 ft
< 800m
< 200 ft
Symbols :   Thunderstorms  Fog  Heavy snow  Heavy precipitations  Wind > 20 kt
SIGMETs :     Misc.  Thunderstorms  Icing  Turbulence  Mountain Waves  Volcanic Ashes







- Airport Elevation : 1079 ft


ETIK - Illesheim Air Base

CURRENT METAR :
  • 211356Z AUTO 05010KT 9999 CLR 03/M05 A3009 RMK AO2 SLP211 T00331051 $

EXPIRED METARs :
  • 211256Z AUTO 05009KT 9999 CLR 03/M05 A3011 RMK AO2 SNB29E38 SLP217 P0000 T00271052 $

TAF AMD TAF ETIK
Valid from the 21 at 07:00 until the 22 at 12:00 UTC


210754Z 2107/2212 VRB06KT 6000 BR SCT010 QNH3008INS
TEMPO 2107/2109 3200 BR
BECMG 2110/2111 01009KT 9999 NSW SCT020 QNH3005INS
BECMG 2123/2124 06009KT 8000 BR OVC020 WS015/08025KT QNH3003INS
BECMG 2208/2209 07012G18KT 9999 NSW OVC015 WS015/08025KT QNH3000INS TX02/2115Z TNM08/2107Z
No reported NOTAMs for that airfield.



MET'MAP, your aeronautical weather chart ! - Copyright ORBIFLY December 2007 - Disclaimer

ORBIFLY MET'MAP TEAM :

Programming & Development : Alexandra Zaïnal
Concept & Development : Baudouin d'Aumeries
Co-Development & Prog : Marc-Olivier Méhu
Technical & hardware support : Manuel Goepfert

Contact : metmap@orbifly.com




SOURCES & CREDITS :

   NOAA